Time;durP1;ratioP1;P1;durP2;ratioP2;P2;SDS_P1;SDS_P2;PMS_P1;PMS_P2;Temp;Humidity;BMP_temperature;BMP_pressure;BME280_temperature;BME280_humidity;BME280_pressure;Samples;Min_cycle;Max_cycle;Signal;HPM_P1;HPM_P2
2020/12/28 00:01:06;;;;;;;6.85;4.17;;;;;;;2.47;73.69;98030.56;2139210;81;21165;-69
2020/12/28 00:04:09;;;;;;;5.10;3.98;;;;;;;2.50;73.68;98018.94;2111645;82;21552;-68
2020/12/28 00:07:11;;;;;;;5.53;4.00;;;;;;;2.50;73.73;98018.94;2119119;82;21119;-70
2020/12/28 00:10:12;;;;;;;5.35;4.17;;;;;;;2.54;73.70;98010.28;2112331;82;21105;-70
2020/12/28 00:13:14;;;;;;;7.53;4.67;;;;;;;2.54;73.74;98000.62;2113369;82;21138;-71
2020/12/28 00:16:16;;;;;;;6.37;4.53;;;;;;;2.54;73.73;97987.53;2114460;82;21133;-75
2020/12/28 00:19:18;;;;;;;4.95;3.60;;;;;;;2.59;73.71;97981.30;2117991;82;21153;-68
2020/12/28 00:22:20;;;;;;;6.30;4.70;;;;;;;2.59;73.64;97956.44;2113693;82;21146;-68
2020/12/28 00:25:24;;;;;;;6.72;4.37;;;;;;;2.59;73.69;97980.47;2118244;82;21806;-74
2020/12/28 00:28:26;;;;;;;7.45;4.25;;;;;;;2.60;73.73;97971.64;2112792;82;21133;-68
2020/12/28 00:31:28;;;;;;;6.55;4.62;;;;;;;2.59;73.65;97959.05;2117320;82;21138;-68
2020/12/28 00:34:29;;;;;;;7.28;4.40;;;;;;;2.59;73.70;97952.97;2109285;82;21122;-75
2020/12/28 00:37:32;;;;;;;6.55;4.50;;;;;;;2.58;73.69;97940.88;2114391;82;21134;-69
2020/12/28 00:40:34;;;;;;;6.95;4.87;;;;;;;2.61;73.68;97930.88;2113122;82;21153;-68
2020/12/28 00:43:36;;;;;;;8.55;5.97;;;;;;;2.63;73.76;97916.31;2114849;82;21184;-68
2020/12/28 00:46:38;;;;;;;9.50;4.17;;;;;;;2.63;73.73;97917.12;2111671;82;21138;-68
2020/12/28 00:49:40;;;;;;;8.65;4.83;;;;;;;2.62;73.76;97907.66;2114238;82;21546;-71
2020/12/28 00:52:43;;;;;;;7.03;4.65;;;;;;;2.63;73.81;97911.89;2115464;82;21645;-76
2020/12/28 00:55:44;;;;;;;6.62;4.35;;;;;;;2.66;73.83;97917.28;2113496;82;21166;-77
2020/12/28 00:58:46;;;;;;;7.10;5.12;;;;;;;2.68;73.82;97909.59;2093967;82;21212;-69
2020/12/28 01:01:54;;;;;;;9.93;4.60;;;;;;;2.68;73.83;97905.66;2113089;82;21578;-70
2020/12/28 01:04:57;;;;;;;7.20;4.35;;;;;;;2.70;73.95;97904.16;2116174;82;21082;-77
2020/12/28 01:08:00;;;;;;;5.87;4.25;;;;;;;2.75;74.00;97907.09;2110205;82;21541;-68
2020/12/28 01:11:03;;;;;;;6.90;4.70;;;;;;;2.80;73.90;97902.66;2113632;82;21177;-68
2020/12/28 01:14:05;;;;;;;10.13;5.05;;;;;;;2.85;73.79;97884.63;2115524;82;22313;-68
2020/12/28 01:17:07;;;;;;;6.67;4.37;;;;;;;2.89;73.71;97888.52;2113367;82;21134;-73
2020/12/28 01:20:11;;;;;;;7.87;3.77;;;;;;;2.90;73.72;97884.44;2112709;82;21126;-68
2020/12/28 01:23:13;;;;;;;7.95;4.58;;;;;;;2.98;73.67;97875.69;2111135;82;21700;-69
2020/12/28 01:26:18;;;;;;;7.42;5.53;;;;;;;3.05;73.48;97884.51;2111284;82;21142;-70
2020/12/28 01:29:22;;;;;;;6.03;4.60;;;;;;;3.09;73.31;97856.95;2114871;82;21230;-77
2020/12/28 01:32:25;;;;;;;8.00;4.10;;;;;;;3.12;73.40;97863.16;2112851;82;21137;-68
2020/12/28 01:35:34;;;;;;;6.00;4.08;;;;;;;3.15;73.29;97848.89;2107779;82;21673;-70
2020/12/28 01:38:37;;;;;;;8.15;5.17;;;;;;;3.21;73.17;97845.59;2116132;82;21123;-68
2020/12/28 01:41:39;;;;;;;6.95;4.47;;;;;;;3.22;73.06;97835.42;2115886;82;21189;-69
2020/12/28 01:44:40;;;;;;;7.67;4.12;;;;;;;3.21;72.96;97814.62;2117927;82;21093;-69
2020/12/28 01:47:44;;;;;;;7.05;4.70;;;;;;;3.19;73.11;97814.00;2109572;82;21490;-69
2020/12/28 01:50:48;;;;;;;8.48;4.90;;;;;;;3.14;73.22;97816.63;2072253;82;21127;-76
2020/12/28 01:53:52;;;;;;;6.90;4.53;;;;;;;3.13;73.28;97797.17;2113374;82;21198;-68
2020/12/28 01:56:58;;;;;;;7.78;4.28;;;;;;;3.14;73.21;97790.93;2104919;82;21613;-76
2020/12/28 02:00:04;;;;;;;7.20;4.47;;;;;;;3.14;73.16;97796.98;2119469;82;21175;-69
2020/12/28 02:03:20;;;;;;;6.95;5.03;;;;;;;3.21;73.03;97791.03;2077825;83;21319;-68
2020/12/28 02:06:25;;;;;;;7.22;4.60;;;;;;;3.21;73.15;97794.96;2072610;84;21125;-69
2020/12/28 02:09:26;;;;;;;5.97;4.53;;;;;;;3.22;73.00;97773.83;2068931;84;21099;-70
2020/12/28 02:12:28;;;;;;;6.83;4.30;;;;;;;3.23;72.99;97775.45;2073659;84;21108;-71
2020/12/28 02:15:31;;;;;;;7.15;4.95;;;;;;;3.21;72.98;97760.89;2077755;84;21188;-72
2020/12/28 02:18:53;;;;;;;8.93;5.08;;;;;;;3.19;73.03;97760.28;1991744;87;21183;-69
2020/12/28 02:21:57;;;;;;;6.28;4.87;;;;;;;3.13;73.19;97768.34;1991491;87;21141;-68
2020/12/28 02:25:00;;;;;;;8.30;4.87;;;;;;;3.10;73.26;97750.36;2064504;84;21221;-69
2020/12/28 02:28:03;;;;;;;7.17;4.95;;;;;;;3.10;73.32;97709.75;2073490;84;21153;-69
2020/12/28 02:31:04;;;;;;;5.45;4.33;;;;;;;3.10;73.38;97748.55;2074110;84;21146;-68
2020/12/28 02:34:08;;;;;;;7.53;4.47;;;;;;;3.11;73.30;97748.05;2071154;84;21126;-71
2020/12/28 02:37:11;;;;;;;5.55;4.10;;;;;;;3.09;73.27;97731.69;2073759;84;21543;-68
2020/12/28 02:40:33;;;;;;;7.03;4.70;;;;;;;3.10;73.34;97739.88;2075223;84;21201;-76
2020/12/28 02:43:34;;;;;;;7.97;5.03;;;;;;;3.08;73.40;97740.05;2074924;84;21245;-68
2020/12/28 02:46:54;;;;;;;6.12;3.95;;;;;;;3.05;73.49;97727.30;2076500;84;21663;-69
2020/12/28 02:50:15;;;;;;;9.17;4.67;;;;;;;3.03;73.57;97731.89;2078670;83;21176;-69
2020/12/28 02:53:35;;;;;;;6.33;4.60;;;;;;;3.01;73.68;97708.98;2074855;84;21616;-69
2020/12/28 02:56:55;;;;;;;7.30;4.17;;;;;;;3.01;73.75;97709.48;2072703;84;21124;-70
2020/12/28 03:00:15;;;;;;;5.78;4.20;;;;;;;3.07;73.73;97726.64;2078697;84;21157;-70
2020/12/28 03:03:35;;;;;;;5.17;4.03;;;;;;;3.08;73.72;97721.70;2106717;82;21639;-70
2020/12/28 03:06:55;;;;;;;6.55;3.77;;;;;;;3.08;73.72;97692.08;2114324;82;21445;-74
2020/12/28 03:10:15;;;;;;;5.83;4.03;;;;;;;3.12;73.60;97695.45;2115438;82;21200;-70
2020/12/28 03:13:36;;;;;;;6.60;4.25;;;;;;;3.14;73.64;97692.66;2115093;82;21339;-73
2020/12/28 03:16:56;;;;;;;5.62;3.47;;;;;;;3.12;73.62;97692.83;2113361;82;21113;-74
2020/12/28 03:20:16;;;;;;;4.83;2.85;;;;;;;3.14;73.69;97682.99;2117673;82;21518;-68
2020/12/28 03:23:36;;;;;;;5.07;3.33;;;;;;;3.15;73.71;97674.63;2119881;82;21149;-67
2020/12/28 03:27:02;;;;;;;3.67;2.80;;;;;;;3.21;73.60;97665.23;2109161;82;22243;-69
2020/12/28 03:30:18;;;;;;;5.08;3.10;;;;;;;3.28;73.48;97655.67;2119202;82;21554;-69
2020/12/28 03:33:38;;;;;;;3.87;2.90;;;;;;;3.30;73.48;97664.98;2116115;82;21119;-68
2020/12/28 03:36:58;;;;;;;3.47;2.83;;;;;;;3.34;73.38;97645.27;2110621;82;21182;-68
2020/12/28 03:40:18;;;;;;;4.25;3.25;;;;;;;3.35;73.33;97627.26;2114550;82;21325;-69
2020/12/28 03:43:38;;;;;;;5.30;3.63;;;;;;;3.39;73.28;97638.19;2115949;82;21533;-68
2020/12/28 03:46:58;;;;;;;3.33;2.70;;;;;;;3.41;73.42;97620.95;2113377;82;21121;-68
2020/12/28 03:50:19;;;;;;;6.08;3.20;;;;;;;3.39;73.56;97611.97;2113770;82;21191;-76
2020/12/28 03:53:38;;;;;;;;;;;;;;;3.42;73.53;97604.24;2118273;82;21209;-70
2020/12/28 03:56:45;;;;;;;4.72;3.42;;;;;;;3.43;73.60;97581.77;2098479;82;20575;-73
2020/12/28 04:00:05;;;;;;;3.03;2.10;;;;;;;3.43;73.57;97567.34;2096918;82;21158;-69
2020/12/28 04:03:18;;;;;;;7.72;3.27;;;;;;;3.41;73.59;97557.56;2086440;82;21100;-69
2020/12/28 04:06:36;;;;;;;3.77;3.10;;;;;;;3.43;73.57;97553.42;2018369;85;21767;-69
2020/12/28 04:09:56;;;;;;;4.85;3.27;;;;;;;3.43;73.43;97534.58;2070829;82;21176;-70
2020/12/28 04:13:03;;;;;;;3.47;2.80;;;;;;;3.42;73.52;97556.55;2069195;83;21148;-68
2020/12/28 04:16:04;;;;;;;3.92;3.40;;;;;;;3.46;73.51;97554.37;2069255;84;21150;-70
2020/12/28 04:19:05;;;;;;;4.12;3.00;;;;;;;3.49;73.39;97564.02;2069623;83;21196;-69
2020/12/28 04:22:07;;;;;;;5.90;3.05;;;;;;;3.52;73.36;97545.77;2071053;84;21208;-68
2020/12/28 04:25:14;;;;;;;4.60;2.52;;;;;;;3.55;73.24;97556.72;2073050;84;21493;-68
2020/12/28 04:28:17;;;;;;;4.08;2.70;;;;;;;3.59;72.99;97542.22;2068050;83;21536;-71
2020/12/28 04:31:20;;;;;;;3.85;2.67;;;;;;;3.62;72.92;97555.97;2073194;84;21172;-77
2020/12/28 04:34:22;;;;;;;3.33;2.67;;;;;;;3.61;72.95;97534.19;2071459;84;21208;-69
2020/12/28 04:37:23;;;;;;;4.03;3.05;;;;;;;3.63;72.86;97559.70;2071355;82;21221;-68
2020/12/28 04:40:25;;;;;;;3.70;2.47;;;;;;;3.64;72.97;97542.19;2070842;82;21662;-68
2020/12/28 04:43:27;;;;;;;3.52;2.52;;;;;;;3.61;72.91;97537.31;2071806;83;21160;-68
2020/12/28 04:46:30;;;;;;;4.75;2.80;;;;;;;3.58;73.08;97544.55;2070259;84;21161;-68
2020/12/28 04:49:33;;;;;;;3.50;2.70;;;;;;;3.54;73.03;97524.92;2072639;83;21230;-69
2020/12/28 04:52:36;;;;;;;3.55;2.80;;;;;;;3.56;73.14;97532.61;2069470;82;21181;-69
2020/12/28 04:55:37;;;;;;;3.10;2.60;;;;;;;3.56;73.17;97519.00;2073331;83;22683;-70
2020/12/28 04:58:39;;;;;;;2.90;2.50;;;;;;;3.55;73.16;97520.52;2069805;83;21449;-72
2020/12/28 05:01:54;;;;;;;3.55;2.50;;;;;;;3.59;72.96;97474.55;2077390;83;21149;-69
2020/12/28 05:05:08;;;;;;;4.17;2.40;;;;;;;3.59;72.98;97505.52;2117248;82;21165;-68
2020/12/28 05:08:10;;;;;;;2.65;2.30;;;;;;;3.56;73.11;97520.81;2121148;82;22294;-67
2020/12/28 05:11:16;;;;;;;3.17;2.62;;;;;;;3.59;72.96;97513.89;2114713;82;21222;-68
2020/12/28 05:14:17;;;;;;;3.30;2.75;;;;;;;3.59;72.81;97508.14;2115233;82;21220;-69
2020/12/28 05:17:18;;;;;;;3.45;2.95;;;;;;;3.60;72.86;97507.63;2100877;82;21208;-69
2020/12/28 05:20:25;;;;;;;3.87;2.60;;;;;;;3.58;72.96;97486.05;2114062;82;21145;-67
2020/12/28 05:23:27;;;;;;;3.20;2.50;;;;;;;3.56;73.02;97514.27;2119170;82;21141;-76
2020/12/28 05:26:32;;;;;;;4.33;3.00;;;;;;;3.55;73.18;97531.00;2118525;82;21226;-67
2020/12/28 05:29:35;;;;;;;4.78;3.12;;;;;;;3.56;73.21;97553.09;2118368;82;21126;-67
2020/12/28 05:32:36;;;;;;;4.42;2.75;;;;;;;3.56;73.21;97531.30;2098234;82;21178;-68
2020/12/28 05:35:38;;;;;;;3.22;2.50;;;;;;;3.55;73.24;97539.67;2117690;82;21185;-74
2020/12/28 05:38:43;;;;;;;3.77;2.75;;;;;;;3.53;73.32;97532.98;2117064;82;22352;-68
2020/12/28 05:42:12;;;;;;;3.83;3.05;;;;;;;3.53;73.37;97533.80;2120212;82;21154;-69
2020/12/28 05:45:14;;;;;;;6.72;2.60;;;;;;;3.52;73.42;97540.05;2119411;82;21181;-68
2020/12/28 05:48:18;;;;;;;4.58;2.80;;;;;;;3.55;73.27;97531.80;2119996;82;21634;-68
2020/12/28 05:51:20;;;;;;;4.40;3.37;;;;;;;3.60;73.28;97548.27;2096955;83;21158;-68
2020/12/28 05:54:23;;;;;;;3.60;2.75;;;;;;;3.64;73.32;97536.94;2115052;82;21538;-71
2020/12/28 05:57:25;;;;;;;3.72;2.90;;;;;;;3.62;73.35;97538.92;2117944;82;21149;-67
2020/12/28 06:00:27;;;;;;;4.75;3.27;;;;;;;3.61;73.40;97550.42;2121039;82;21117;-70
2020/12/28 06:03:31;;;;;;;5.00;3.30;;;;;;;3.65;73.30;97543.80;2119119;82;21220;-68
2020/12/28 06:06:33;;;;;;;4.50;3.05;;;;;;;3.68;73.30;97538.18;2117721;82;21172;-68
2020/12/28 06:09:36;;;;;;;5.12;3.12;;;;;;;3.64;73.30;97532.50;2116376;82;21086;-76
2020/12/28 06:12:38;;;;;;;4.97;3.12;;;;;;;3.59;73.37;97545.35;2116530;82;21170;-68
2020/12/28 06:15:40;;;;;;;3.83;3.12;;;;;;;3.61;73.47;97529.45;2118255;82;21112;-70
2020/12/28 06:18:47;;;;;;;6.35;3.12;;;;;;;3.61;73.49;97543.87;2116368;82;21149;-68
2020/12/28 06:21:49;;;;;;;4.37;3.15;;;;;;;3.64;73.31;97546.12;2111726;82;21121;-72
2020/12/28 06:25:09;;;;;;;4.50;3.50;;;;;;;3.64;73.31;97556.61;2117944;82;21165;-69
2020/12/28 06:28:10;;;;;;;4.42;3.00;;;;;;;3.63;73.32;97551.03;2096503;82;21150;-67
2020/12/28 06:31:12;;;;;;;4.20;3.00;;;;;;;3.62;73.29;97552.04;2113290;82;21162;-67
2020/12/28 06:34:20;;;;;;;4.85;3.45;;;;;;;3.63;73.25;97561.02;2117928;82;21177;-67
2020/12/28 06:37:27;;;;;;;4.17;3.45;;;;;;;3.61;73.24;97559.10;2116280;82;21152;-71
2020/12/28 06:40:35;;;;;;;4.53;3.50;;;;;;;3.62;73.28;97561.22;2110793;82;21129;-68
2020/12/28 06:43:41;;;;;;;4.37;3.45;;;;;;;3.62;73.25;97566.46;2115172;82;21143;-68
2020/12/28 06:46:43;;;;;;;5.42;3.50;;;;;;;3.62;73.26;97568.58;2117258;82;21152;-75
2020/12/28 06:49:45;;;;;;;6.03;3.85;;;;;;;3.61;73.27;97570.91;2116852;82;21189;-68
2020/12/28 06:52:52;;;;;;;7.00;3.92;;;;;;;3.65;73.27;97585.76;2119643;82;21196;-71
2020/12/28 06:55:56;;;;;;;7.30;4.15;;;;;;;3.67;73.24;97581.15;2116650;82;21240;-75
2020/12/28 06:58:59;;;;;;;5.20;3.55;;;;;;;3.67;73.26;97581.95;2119363;82;21119;-68
2020/12/28 07:02:03;;;;;;;5.90;3.80;;;;;;;3.66;73.19;97580.34;2118621;82;21166;-71
2020/12/28 07:05:05;;;;;;;4.33;3.27;;;;;;;3.66;73.25;97561.15;2078845;83;21794;-68
2020/12/28 07:08:06;;;;;;;6.62;3.95;;;;;;;3.67;73.10;97556.23;2080315;84;22490;-69
2020/12/28 07:11:08;;;;;;;4.33;3.27;;;;;;;3.66;72.98;97560.67;2083460;84;21212;-82
2020/12/28 07:14:10;;;;;;;4.92;3.67;;;;;;;3.65;72.84;97542.48;2081036;84;21153;-83
2020/12/28 07:17:11;;;;;;;4.67;3.35;;;;;;;3.66;72.79;97543.62;2084887;84;21184;-71
2020/12/28 07:20:14;;;;;;;3.83;3.10;;;;;;;3.65;72.77;97546.42;2081629;84;21152;-71
2020/12/28 07:23:16;;;;;;;5.35;3.58;;;;;;;3.67;72.57;97528.70;2083404;84;21106;-72
2020/12/28 07:26:19;;;;;;;6.90;4.33;;;;;;;3.68;72.59;97547.36;2084587;84;21109;-71
2020/12/28 07:29:20;;;;;;;5.10;3.47;;;;;;;3.70;72.44;97546.18;2081218;84;21113;-77
2020/12/28 07:32:21;;;;;;;5.97;3.65;;;;;;;3.76;72.46;97535.44;2081900;84;21548;-70
2020/12/28 07:35:23;;;;;;;4.15;3.22;;;;;;;3.86;72.15;97524.63;2082020;84;21146;-69
2020/12/28 07:38:25;;;;;;;5.03;3.62;;;;;;;3.84;72.01;97526.14;2085326;84;21229;-70
2020/12/28 07:41:27;;;;;;;5.30;4.05;;;;;;;3.87;72.15;97532.83;2083328;84;21223;-79
2020/12/28 07:44:28;;;;;;;7.28;3.85;;;;;;;3.83;72.16;97527.16;2082036;84;21130;-71
2020/12/28 07:47:48;;;;;;;5.20;4.33;;;;;;;3.89;72.23;97534.78;2080652;84;21157;-70
2020/12/28 07:50:53;;;;;;;6.75;5.15;;;;;;;3.89;72.26;97535.58;2079828;84;21201;-72
2020/12/28 07:54:00;;;;;;;5.67;4.37;;;;;;;3.90;72.28;97535.89;2081591;84;21144;-78
2020/12/28 07:57:03;;;;;;;5.75;4.00;;;;;;;3.91;72.33;97528.83;2081303;84;21599;-71
2020/12/28 08:00:07;;;;;;;5.58;4.08;;;;;;;3.92;72.36;97526.53;2082312;84;21218;-73
2020/12/28 08:03:31;;;;;;;6.53;4.25;;;;;;;3.93;72.44;97530.27;2089639;83;21113;-74
2020/12/28 08:06:33;;;;;;;8.15;4.90;;;;;;;3.95;72.48;97515.16;2112349;82;21335;-69
2020/12/28 08:09:35;;;;;;;7.08;4.78;;;;;;;3.97;72.37;97519.72;2112246;82;21137;-70
2020/12/28 08:12:44;;;;;;;5.78;4.28;;;;;;;4.00;72.56;97505.41;2113357;82;22649;-72
2020/12/28 08:15:46;;;;;;;6.30;3.70;;;;;;;4.01;72.35;97506.52;2112178;82;21119;-72
2020/12/28 08:18:53;;;;;;;5.30;3.72;;;;;;;4.04;72.17;97498.27;2110974;82;21084;-72
2020/12/28 08:21:56;;;;;;;7.17;4.55;;;;;;;4.09;72.08;97505.59;2114183;81;21513;-69
2020/12/28 08:25:05;;;;;;;5.08;3.92;;;;;;;4.12;72.04;97513.08;2111058;82;21192;-69
2020/12/28 08:28:06;;;;;;;5.83;4.75;;;;;;;4.12;72.15;97510.45;2092506;82;21206;-70
2020/12/28 08:31:08;;;;;;;5.55;3.77;;;;;;;4.13;72.00;97506.82;2115124;82;21136;-69
2020/12/28 08:34:13;;;;;;;5.53;4.47;;;;;;;4.17;72.06;97499.41;2112040;82;21058;-70
2020/12/28 08:37:19;;;;;;;6.28;4.75;;;;;;;4.20;72.14;97509.52;2113734;82;21587;-70
2020/12/28 08:40:23;;;;;;;6.95;4.83;;;;;;;4.24;71.99;97498.94;2086961;82;22177;-70
2020/12/28 08:43:24;;;;;;;5.55;4.53;;;;;;;4.23;72.06;97509.14;2113508;82;21138;-69
2020/12/28 08:46:26;;;;;;;6.37;4.03;;;;;;;4.25;71.92;97501.39;2116212;82;21155;-68
2020/12/28 08:49:30;;;;;;;5.47;4.10;;;;;;;4.26;71.91;97496.94;2112170;82;21587;-73
2020/12/28 08:52:31;;;;;;;7.20;4.92;;;;;;;4.29;71.95;97487.38;2112767;81;21124;-69
2020/12/28 08:55:33;;;;;;;5.20;4.15;;;;;;;4.32;72.01;97487.49;2110183;82;21132;-71
2020/12/28 08:58:34;;;;;;;5.85;4.33;;;;;;;4.34;71.74;97504.68;2111832;82;21172;-67
2020/12/28 09:01:36;;;;;;;6.42;4.70;;;;;;;4.36;71.77;97504.47;2114146;82;21472;-67
2020/12/28 09:04:37;;;;;;;6.53;4.83;;;;;;;4.38;71.77;97497.23;2096309;82;21149;-82
2020/12/28 09:07:38;;;;;;;6.35;4.60;;;;;;;4.40;71.63;97499.16;2122759;82;21180;-84
2020/12/28 09:10:40;;;;;;;7.53;5.17;;;;;;;4.43;71.52;97502.72;2120100;82;21160;-72
2020/12/28 09:13:41;;;;;;;6.60;4.55;;;;;;;4.42;71.52;97500.60;2123360;82;21145;-67
2020/12/28 09:16:43;;;;;;;7.72;5.10;;;;;;;4.46;71.51;97500.52;2119826;82;21138;-66
2020/12/28 09:19:44;;;;;;;7.20;4.90;;;;;;;4.47;71.13;97480.31;2119924;82;21076;-76
2020/12/28 09:22:46;;;;;;;8.48;5.75;;;;;;;4.47;71.22;97471.93;2123391;82;21147;-81
2020/12/28 09:25:47;;;;;;;6.75;4.50;;;;;;;4.51;71.33;97475.52;2100826;82;21706;-71
2020/12/28 09:28:49;;;;;;;6.67;5.10;;;;;;;4.51;70.90;97487.33;2120669;82;21150;-70
2020/12/28 09:31:51;;;;;;;7.78;5.28;;;;;;;4.51;71.05;97468.44;2118999;82;21711;-73
2020/12/28 09:34:52;;;;;;;7.65;5.40;;;;;;;4.54;70.97;97490.38;2123054;82;21130;-68
2020/12/28 09:37:54;;;;;;;7.45;6.10;;;;;;;4.54;71.20;97495.63;2121044;82;21194;-72
2020/12/28 09:40:56;;;;;;;7.58;5.37;;;;;;;4.52;71.41;97500.76;2120192;82;21892;-70
2020/12/28 09:43:58;;;;;;;5.78;4.67;;;;;;;4.51;71.12;97479.45;2122132;82;21133;-71
2020/12/28 09:47:00;;;;;;;6.10;4.30;;;;;;;4.48;71.36;97491.15;2119068;82;21637;-68
2020/12/28 09:50:02;;;;;;;8.53;5.17;;;;;;;4.48;71.39;97472.77;2121249;82;21521;-75
2020/12/28 09:53:03;;;;;;;10.23;5.72;;;;;;;4.50;71.50;97470.73;2120734;82;21143;-68
2020/12/28 09:56:05;;;;;;;6.60;5.05;;;;;;;4.51;71.64;97470.26;2120716;82;21926;-68
2020/12/28 09:59:07;;;;;;;9.63;6.03;;;;;;;4.48;71.43;97443.38;2122916;82;21167;-68
2020/12/28 10:02:08;;;;;;;7.33;4.90;;;;;;;4.47;71.72;97472.44;2119452;82;21176;-67
2020/12/28 10:05:10;;;;;;;9.90;5.20;;;;;;;4.48;71.49;97463.06;2136139;81;21599;-70
2020/12/28 10:08:12;;;;;;;9.43;6.22;;;;;;;4.48;71.64;97460.44;2143260;81;21180;-75
2020/12/28 10:11:13;;;;;;;8.98;5.20;;;;;;;4.52;71.74;97460.86;2146191;81;21176;-80
2020/12/28 10:14:15;;;;;;;8.25;5.47;;;;;;;4.55;71.65;97464.41;2143440;81;21206;-72
2020/12/28 10:17:17;;;;;;;7.05;5.17;;;;;;;4.57;71.58;97454.53;2141992;81;21180;-74
2020/12/28 10:20:19;;;;;;;6.83;5.15;;;;;;;4.58;70.96;97456.66;2143227;81;21613;-70
2020/12/28 10:23:20;;;;;;;7.53;5.05;;;;;;;4.61;71.36;97447.07;2142421;81;21116;-69
2020/12/28 10:26:27;;;;;;;6.80;4.92;;;;;;;4.58;70.69;97443.02;2142452;81;21139;-69
2020/12/28 10:29:28;;;;;;;8.58;5.03;;;;;;;4.57;70.88;97444.53;2143772;81;21088;-67
2020/12/28 10:32:30;;;;;;;6.75;4.53;;;;;;;4.56;71.00;97427.14;2144510;81;21628;-70
2020/12/28 10:35:32;;;;;;;7.90;5.25;;;;;;;4.51;70.34;97425.62;2144717;81;21177;-74
2020/12/28 10:38:33;;;;;;;8.35;5.55;;;;;;;4.47;70.38;97411.53;2143662;81;21252;-70
2020/12/28 10:41:35;;;;;;;6.72;5.25;;;;;;;4.44;70.36;97407.98;2143626;81;21163;-70
2020/12/28 10:44:36;;;;;;;7.67;5.67;;;;;;;4.40;70.47;97406.77;2146382;81;22047;-71
2020/12/28 10:47:38;;;;;;;6.50;4.72;;;;;;;4.36;70.21;97401.58;2144238;81;21126;-70
2020/12/28 10:50:39;;;;;;;8.38;5.28;;;;;;;4.34;70.08;97401.48;2140158;81;21121;-71
2020/12/28 10:53:41;;;;;;;6.95;4.72;;;;;;;4.31;69.97;97398.75;2143688;81;21586;-72
2020/12/28 10:56:42;;;;;;;10.70;6.00;;;;;;;4.29;70.36;97388.93;2135623;81;21209;-69
2020/12/28 10:59:44;;;;;;;8.73;5.37;;;;;;;4.25;70.50;97392.93;2142708;81;21228;-70
2020/12/28 11:02:46;;;;;;;7.03;4.47;;;;;;;4.20;70.39;97392.72;2141735;81;21631;-77
2020/12/28 11:05:47;;;;;;;9.98;5.20;;;;;;;4.17;70.39;97389.17;2121935;81;22511;-74
2020/12/28 11:08:49;;;;;;;7.62;5.33;;;;;;;4.14;70.39;97383.80;2120700;82;21188;-73
2020/12/28 11:11:52;;;;;;;9.68;6.17;;;;;;;4.11;70.86;97391.23;2119043;82;22307;-72
2020/12/28 11:14:53;;;;;;;7.90;6.12;;;;;;;4.08;70.92;97377.98;2124029;82;21104;-72
2020/12/28 11:17:55;;;;;;;8.05;5.75;;;;;;;4.06;70.90;97379.20;2120451;82;21510;-72
2020/12/28 11:20:57;;;;;;;7.37;4.85;;;;;;;4.05;70.90;97373.13;2118426;82;21576;-76
2020/12/28 11:23:59;;;;;;;8.30;5.45;;;;;;;4.06;71.11;97380.52;2115846;82;21131;-74
2020/12/28 11:27:00;;;;;;;9.05;5.92;;;;;;;4.06;70.60;97375.27;2120664;82;21189;-72
2020/12/28 11:30:04;;;;;;;10.53;6.40;;;;;;;4.06;70.96;97376.08;2116430;82;22266;-72
2020/12/28 11:33:05;;;;;;;10.95;6.53;;;;;;;4.05;70.81;97361.31;2113522;82;21181;-81
2020/12/28 11:36:07;;;;;;;8.98;6.03;;;;;;;4.04;70.42;97353.95;2118175;82;21572;-73
2020/12/28 11:39:14;;;;;;;7.90;5.75;;;;;;;4.03;70.11;97358.09;2118693;82;21077;-73
2020/12/28 11:42:15;;;;;;;8.53;5.85;;;;;;;4.02;69.51;97348.59;2116720;82;21204;-75
2020/12/28 11:45:16;;;;;;;10.32;5.97;;;;;;;4.02;69.02;97346.77;2122645;82;21124;-76
2020/12/28 11:48:17;;;;;;;7.80;5.55;;;;;;;4.00;68.35;97357.17;2120531;82;21547;-77
2020/12/28 11:51:18;;;;;;;8.30;5.80;;;;;;;3.98;67.97;97358.66;2120671;82;21485;-73
2020/12/28 11:54:21;;;;;;;9.35;6.42;;;;;;;3.99;67.38;97350.28;2119700;82;21102;-72
2020/12/28 11:57:23;;;;;;;8.43;5.75;;;;;;;3.95;67.47;97355.11;2113537;82;21557;-74
2020/12/28 12:00:24;;;;;;;11.45;6.08;;;;;;;3.91;65.76;97333.37;2121071;82;21123;-73
2020/12/28 12:03:28;;;;;;;11.05;6.47;;;;;;;3.89;65.57;97341.45;2119596;82;21077;-73
2020/12/28 12:06:29;;;;;;;11.43;7.22;;;;;;;3.87;66.17;97342.64;2080985;84;21149;-72
2020/12/28 12:09:31;;;;;;;9.98;6.47;;;;;;;3.85;65.85;97339.39;2058355;84;21149;-76
2020/12/28 12:12:32;;;;;;;9.63;6.05;;;;;;;3.80;64.74;97322.91;2071590;84;22419;-84
2020/12/28 12:15:34;;;;;;;9.98;6.67;;;;;;;3.71;64.27;97296.02;2077902;84;21183;-79
2020/12/28 12:18:36;;;;;;;10.08;6.67;;;;;;;3.63;64.71;97318.45;2073820;83;21624;-77
2020/12/28 12:21:37;;;;;;;10.53;7.17;;;;;;;3.56;65.27;97324.16;2077888;83;21155;-76
2020/12/28 12:24:39;;;;;;;11.95;7.30;;;;;;;3.51;65.24;97323.41;2075691;83;21101;-79
2020/12/28 12:27:40;;;;;;;9.70;7.17;;;;;;;3.47;65.78;97323.50;2078741;83;21159;-77
2020/12/28 12:30:42;;;;;;;12.80;7.45;;;;;;;3.43;65.75;97323.55;2077969;84;21162;-71
2020/12/28 12:33:44;;;;;;;11.08;7.50;;;;;;;3.39;65.63;97321.01;2085142;83;21183;-70
2020/12/28 12:36:47;;;;;;;11.38;7.45;;;;;;;3.35;65.67;97307.95;2080376;83;21172;-69
2020/12/28 12:39:48;;;;;;;11.25;7.20;;;;;;;3.31;66.21;97310.66;2078891;83;21173;-68
2020/12/28 12:42:50;;;;;;;13.03;8.05;;;;;;;3.28;66.40;97315.77;2052672;83;21219;-68
2020/12/28 12:45:53;;;;;;;11.08;8.20;;;;;;;3.25;66.60;97308.80;2078148;83;21184;-68
2020/12/28 12:48:54;;;;;;;15.20;9.10;;;;;;;3.20;66.51;97330.81;2071580;83;21472;-71
2020/12/28 12:52:17;;;;;;;11.35;7.35;;;;;;;3.11;66.46;97323.58;2074835;84;21150;-72
2020/12/28 12:55:19;;;;;;;12.30;8.30;;;;;;;3.08;67.04;97312.17;2078244;83;21165;-70
2020/12/28 12:58:20;;;;;;;13.85;9.03;;;;;;;3.00;66.94;97310.98;2078067;83;21505;-71
2020/12/28 13:01:22;;;;;;;13.88;9.43;;;;;;;2.99;67.03;97322.47;2085224;83;21189;-70
2020/12/28 13:04:32;;;;;;;13.53;9.15;;;;;;;2.98;67.28;97312.47;2088652;81;21110;-72
2020/12/28 13:07:35;;;;;;;14.37;8.70;;;;;;;2.95;67.04;97319.39;2145554;81;21239;-72
2020/12/28 13:10:37;;;;;;;14.53;8.30;;;;;;;2.89;67.17;97322.77;2145389;81;21443;-72
2020/12/28 13:13:38;;;;;;;12.35;8.43;;;;;;;2.86;67.25;97324.44;2143351;81;21207;-70
2020/12/28 13:16:40;;;;;;;13.25;8.75;;;;;;;2.83;67.16;97337.91;2146531;81;21136;-73
2020/12/28 13:19:42;;;;;;;14.20;8.98;;;;;;;2.80;67.50;97343.52;2144329;81;21203;-73
2020/12/28 13:22:43;;;;;;;17.23;10.53;;;;;;;2.78;67.25;97340.27;2147291;81;21544;-74
2020/12/28 13:25:48;;;;;;;15.75;8.68;;;;;;;2.77;67.13;97346.52;2144218;81;21185;-73
2020/12/28 13:28:49;;;;;;;15.20;9.18;;;;;;;2.75;66.90;97353.73;2147691;81;21141;-74
2020/12/28 13:31:51;;;;;;;17.62;9.65;;;;;;;2.75;67.37;97357.16;2147178;80;21131;-73
2020/12/28 13:34:52;;;;;;;13.13;8.78;;;;;;;2.75;67.47;97362.90;2145139;81;21105;-75
2020/12/28 13:37:54;;;;;;;13.53;8.35;;;;;;;2.75;67.47;97374.68;2147095;81;21096;-70
2020/12/28 13:40:55;;;;;;;16.02;9.65;;;;;;;2.77;67.25;97366.95;2146290;81;21634;-72
2020/12/28 13:43:57;;;;;;;15.72;10.30;;;;;;;2.77;67.30;97365.65;2146919;80;21131;-72
2020/12/28 13:46:58;;;;;;;16.17;9.45;;;;;;;2.77;67.18;97367.46;2140589;81;21117;-71
2020/12/28 13:50:00;;;;;;;15.00;10.03;;;;;;;2.78;67.27;97379.55;2143371;81;21149;-70
2020/12/28 13:53:03;;;;;;;14.35;9.53;;;;;;;2.77;67.17;97374.01;2146401;81;21677;-68
2020/12/28 13:56:04;;;;;;;17.75;10.85;;;;;;;2.75;67.43;97374.68;2146092;81;21172;-71
2020/12/28 13:59:06;;;;;;;16.87;10.10;;;;;;;2.75;67.47;97370.25;2148965;81;21052;-72
2020/12/28 14:02:08;;;;;;;16.25;10.13;;;;;;;2.75;67.32;97371.56;2145325;81;21139;-71
2020/12/28 14:05:10;;;;;;;16.37;10.98;;;;;;;2.75;67.26;97374.17;2137415;81;21244;-76
2020/12/28 14:08:14;;;;;;;19.37;11.83;;;;;;;2.74;67.57;97371.77;2118441;82;21145;-77
2020/12/28 14:11:19;;;;;;;16.90;11.22;;;;;;;2.73;67.73;97368.81;2118508;82;21584;-74
2020/12/28 14:14:21;;;;;;;18.82;10.35;;;;;;;2.72;67.55;97365.89;2118875;82;21168;-74
2020/12/28 14:17:23;;;;;;;16.75;10.30;;;;;;;2.69;67.77;97360.02;2111831;82;21180;-72
2020/12/28 14:20:25;;;;;;;22.27;10.53;;;;;;;2.68;67.36;97361.02;2097737;83;21170;-73
2020/12/28 14:23:29;;;;;;;21.62;11.10;;;;;;;2.67;67.43;97356.77;2117789;82;21137;-72
2020/12/28 14:26:31;;;;;;;17.67;10.30;;;;;;;2.65;67.44;97365.31;2115541;82;21632;-73
2020/12/28 14:29:33;;;;;;;15.88;10.40;;;;;;;2.62;67.59;97365.69;2118364;82;21169;-75
2020/12/28 14:32:35;;;;;;;16.97;11.18;;;;;;;2.60;67.50;97372.91;2119880;82;21652;-72
2020/12/28 14:35:37;;;;;;;17.35;10.45;;;;;;;2.56;67.50;97370.35;2114512;82;21178;-74